Hainesport, NJ (08036)

4:50 PM EDT on October 01, 2014 (GMT -0400)
Mount Holly WFO | Change Station
CLOSE
Current Station
Personal Weather Station
Location: Mount Holly, NJ
Elevation: 56 ft
Nearby Weather Stations

Elev 56 ft 40.01 °N, 74.82 °W | Updated 23 seconds ago

Partly Cloudy
Partly Cloudy
66.0 °F
Feels Like 66.0 °F
N
2.0
Wind Variable Wind from NNW
Gusts 2.0 mph

Today
High -- | Low -- °F
--% Chance of Precip.
Yesterday
High -- | Low -- °F
Precip. -- in
6:55 AM 6:41 PM
Waxing Crescent, 51% visible
Pressure 29.90 in
Visibility 10.0 miles
Clouds Few 12000 ft
Dew Point 59 °F
Humidity 78%
Rainfall 0.00 in
Snow Depth Not available.
UV 1 out of 12
Pollen 2.20 out of 12
Ozone Good
PM2.5 Moderate
Flu Activity Not available.
METAR KVAY 302054Z AUTO 09009G14KT 10SM FEW120 22/14 A2990 RMK AO2 SLP123 T02220144 55004

More Conditions Fewer Conditions

Pressure 29.90 in
Visibility 10.0 miles
Clouds Few 12000 ft
Dew Point 59 °F
Humidity 78%
Rainfall 0.00 in
Snow Depth Not available.
UV 1 out of 12
Pollen 2.20 out of 12
Ozone Good
PM2.5 Moderate
Flu Activity Not available.
METAR KVAY 302054Z AUTO 09009G14KT 10SM FEW120 22/14 A2990 RMK AO2 SLP123 T02220144 55004

More Conditions Fewer Conditions

10-Day Weather Forecast

Almanac

Astronomy

Oct. 01, 2014 Rise Set
Actual Time 6:55 AM EDT 6:41 PM EDT
Civil Twilight 6:28 AM EDT 7:08 PM EDT
Nautical Twilight 5:57 AM EDT 7:39 PM EDT
Astronomical Twilight 5:25 AM EDT 8:11 PM EDT
Moon 1:54 PM EDT No Moon Set
Length of Visible Light 12h 40m
Length of Day
11h 46m
Tomorrow will be 2m 36s shorter.
Waxing Crescent, 51% of the Moon is Illuminated
Today
Waxing Crescent
Oct 8
Full
Oct 15
Last Quarter
Oct 23
New
Oct 30
First Quarter

Today's Extremes

State Highs State Lows

Community

WunderPhotos

Upload Photos

1,758,043 photos uploaded!

WunderBlogs® & News

By Dr. Jeff Masters
Director of Meteorology, Weather Underground
By Kari Strenfel
Meteorologist, Weather Underground
By Christopher C. Burt
Weather Historian, Weather Underground
October 1, 2014
October 1, 2014
October 1, 2014

Nearby

Air Quality

  Air Quality AQ Index Pollutant
Yesterday Moderate
PM2.5
Yesterday Good
OZONE
Current Moderate
PM2.5
Current Good
OZONE
Wednesday Good
PM2.5
Thursday Good
PM2.5
Friday Good
PM2.5
Saturday Good
PM2.5

Snow Depth

Station Depth Elevation
No new snow has been reported.

Earthquake Activity

City Distance Mag. Time & Date
No recent earthquake activity has been reported nearby.
Minimum magnitude displayed is 2.5.

Coastal Water Temperatures

Place Temperature
No Stations Reporting

Nearby Weather Stations